Time;durP1;ratioP1;P1;durP2;ratioP2;P2;SDS_P1;SDS_P2;PMS_P1;PMS_P2;Temp;Humidity;BMP_temperature;BMP_pressure;BME280_temperature;BME280_humidity;BME280_pressure;Samples;Min_cycle;Max_cycle;Signal;HPM_P1;HPM_P2
2023/08/09 00:40:54;;;;;;;5.05;3.80;;;22.10;99.90;;;;;;6237087;28;89957;-92
2023/08/09 06:00:43;;;;;;;6.20;4.10;;;22.00;99.90;;;;;;6234935;28;89444;-90
2023/08/09 06:35:22;;;;;;;6.20;4.13;;;22.00;99.90;;;;;;6231859;28;90439;-88
2023/08/09 06:38:26;;;;;;;5.97;4.00;;;22.00;99.90;;;;;;6230358;28;90138;-89
2023/08/09 06:41:30;;;;;;;7.07;4.22;;;22.00;99.90;;;;;;6226191;28;89140;-88
2023/08/09 06:44:33;;;;;;;5.60;4.07;;;22.00;99.90;;;;;;6232644;28;89036;-88
2023/08/09 06:47:38;;;;;;;5.68;4.00;;;22.00;99.90;;;;;;6229996;28;89016;-88
2023/08/09 06:50:40;;;;;;;6.78;4.00;;;22.00;99.90;;;;;;6227538;28;89282;-89
2023/08/09 06:57:02;;;;;;;6.25;4.10;;;22.00;99.90;;;;;;6236169;28;90011;-88
2023/08/09 07:00:15;;;;;;;4.97;4.10;;;22.00;99.90;;;;;;6233717;28;87409;-89
2023/08/09 07:03:22;;;;;;;6.57;4.07;;;22.00;99.90;;;;;;6239044;28;88612;-88
2023/08/09 07:06:25;;;;;;;5.78;4.25;;;22.00;99.90;;;;;;6235628;28;89999;-88
2023/08/09 07:09:28;;;;;;;5.60;4.18;;;22.00;99.90;;;;;;6237510;28;90496;-89
2023/08/09 07:12:38;;;;;;;6.20;4.03;;;22.00;99.90;;;;;;6236440;28;89045;-88
2023/08/09 07:15:41;;;;;;;5.50;4.07;;;22.00;99.90;;;;;;6228571;28;87726;-88
2023/08/09 07:18:47;;;;;;;5.30;4.15;;;22.00;99.90;;;;;;6229708;28;89415;-88
2023/08/09 07:21:50;;;;;;;5.85;4.30;;;21.90;99.90;;;;;;6230353;28;89329;-88
2023/08/09 07:24:52;;;;;;;4.57;4.18;;;21.90;99.90;;;;;;6230932;28;88631;-88
2023/08/09 07:27:55;;;;;;;5.93;4.20;;;21.90;99.90;;;;;;6227057;28;89024;-88
2023/08/09 07:30:57;;;;;;;5.43;4.25;;;22.00;99.90;;;;;;6230676;28;88386;-89
2023/08/09 07:34:02;;;;;;;5.07;4.10;;;21.90;99.90;;;;;;6230435;28;89140;-88
2023/08/09 07:37:05;;;;;;;5.57;4.15;;;21.90;99.90;;;;;;6229463;28;87945;-88
2023/08/09 07:40:08;;;;;;;6.00;4.45;;;21.90;99.90;;;;;;6228362;28;90158;-88
2023/08/09 07:43:11;;;;;;;5.78;4.50;;;22.00;99.90;;;;;;6228670;28;89103;-88
2023/08/09 07:46:13;;;;;;;5.50;3.85;;;22.00;99.90;;;;;;6228608;28;89014;-88
2023/08/09 07:49:19;;;;;;;5.53;4.07;;;21.90;99.90;;;;;;6231640;28;89300;-88
2023/08/09 07:52:22;;;;;;;5.07;4.00;;;22.00;99.90;;;;;;6234842;28;87752;-88
2023/08/09 07:55:26;;;;;;;4.70;4.20;;;21.90;99.90;;;;;;6233297;28;89404;-88
2023/08/09 07:58:28;;;;;;;5.55;4.07;;;21.90;99.90;;;;;;6238526;28;89181;-88
2023/08/09 08:01:31;;;;;;;6.35;4.60;;;22.00;99.90;;;;;;6227982;28;87147;-88
2023/08/09 08:04:36;;;;;;;5.35;4.40;;;22.00;99.90;;;;;;6232593;28;89580;-88
2023/08/09 08:07:42;;;;;;;4.93;4.15;;;21.90;99.90;;;;;;6233440;28;89626;-88
2023/08/09 08:10:45;;;;;;;4.30;3.88;;;22.00;99.90;;;;;;6241545;28;89877;-88
2023/08/09 08:13:48;;;;;;;4.80;4.28;;;21.90;99.90;;;;;;6240257;28;87944;-88
2023/08/09 08:16:52;;;;;;;5.32;4.28;;;21.90;99.90;;;;;;6240747;28;87830;-88
2023/08/09 08:19:56;;;;;;;4.82;4.30;;;22.00;99.90;;;;;;6238845;28;88863;-88
2023/08/09 08:22:59;;;;;;;4.88;4.38;;;21.90;99.90;;;;;;6238752;28;87938;-88
2023/08/09 08:26:02;;;;;;;4.78;4.22;;;21.90;99.90;;;;;;6232883;28;88962;-88
2023/08/09 08:29:04;;;;;;;4.50;4.10;;;21.90;99.90;;;;;;6231990;28;89062;-88
2023/08/09 08:32:07;;;;;;;4.95;4.03;;;21.90;99.90;;;;;;6233752;28;88343;-88
2023/08/09 08:35:11;;;;;;;4.75;3.97;;;21.90;99.90;;;;;;6231371;28;89075;-88
2023/08/09 08:38:15;;;;;;;5.20;4.25;;;21.90;99.90;;;;;;6235907;28;89949;-88
2023/08/09 08:41:18;;;;;;;6.00;4.63;;;21.90;99.90;;;;;;6230610;28;89414;-88
2023/08/09 08:44:23;;;;;;;4.22;3.83;;;21.90;99.90;;;;;;6231462;28;88178;-88
2023/08/09 08:47:27;;;;;;;5.13;4.57;;;21.90;99.90;;;;;;6236798;28;89171;-88
2023/08/09 08:50:33;;;;;;;5.13;4.57;;;21.90;99.90;;;;;;6235750;28;88967;-87
2023/08/09 08:56:52;;;;;;;4.85;4.35;;;21.90;99.90;;;;;;6235526;28;90192;-88
2023/08/09 08:59:54;;;;;;;4.80;4.20;;;21.90;99.90;;;;;;6233028;28;89033;-88
2023/08/09 09:02:58;;;;;;;5.90;4.20;;;21.90;99.90;;;;;;6237413;28;87356;-87
2023/08/09 09:06:03;;;;;;;4.40;3.97;;;21.90;99.90;;;;;;6237081;28;89082;-88
2023/08/09 09:09:13;;;;;;;5.07;4.07;;;21.90;99.90;;;;;;6232007;28;89236;-88
2023/08/09 09:12:16;;;;;;;4.32;3.92;;;21.90;99.90;;;;;;6231835;28;89739;-88
2023/08/09 09:15:19;;;;;;;5.15;4.20;;;21.90;99.90;;;;;;6232866;28;89407;-88
2023/08/09 09:18:22;;;;;;;4.90;4.40;;;21.90;99.90;;;;;;6233512;28;89085;-88
2023/08/09 09:21:34;;;;;;;4.68;4.18;;;21.90;99.90;;;;;;6227821;28;89113;-88
2023/08/09 09:24:38;;;;;;;4.55;4.10;;;21.90;99.90;;;;;;6231762;28;88330;-88
2023/08/09 09:27:42;;;;;;;4.30;3.90;;;21.90;99.90;;;;;;6234653;28;89726;-88
2023/08/09 09:30:59;;;;;;;4.97;4.47;;;21.90;99.90;;;;;;6238082;27;88232;-88
2023/08/09 09:34:06;;;;;;;4.45;4.05;;;21.90;99.90;;;;;;6236770;28;89035;-88
2023/08/09 09:37:20;;;;;;;5.05;4.30;;;21.90;99.90;;;;;;6234311;28;88467;-88
2023/08/09 09:40:23;;;;;;;4.50;4.10;;;21.90;99.90;;;;;;6230136;28;89102;-88
2023/08/09 09:43:28;;;;;;;4.32;3.90;;;21.90;99.90;;;;;;6233959;28;89378;-88
2023/08/09 09:46:34;;;;;;;4.72;4.22;;;21.90;99.90;;;;;;6228858;28;89542;-88
2023/08/09 09:49:36;;;;;;;4.90;4.38;;;21.90;99.90;;;;;;6229417;28;89348;-88
2023/08/09 09:52:41;;;;;;;4.60;3.88;;;21.90;99.90;;;;;;6237308;28;89074;-88
2023/08/09 09:55:43;;;;;;;4.88;4.22;;;21.90;99.90;;;;;;6235917;28;88271;-88
2023/08/09 09:58:47;;;;;;;4.68;4.18;;;21.90;99.90;;;;;;6232573;28;89192;-88
2023/08/09 10:01:50;;;;;;;4.63;4.22;;;21.90;99.90;;;;;;6233562;28;87671;-88
2023/08/09 10:04:53;;;;;;;3.78;3.47;;;21.90;99.90;;;;;;6236804;28;88570;-88
2023/08/09 10:07:59;;;;;;;4.63;3.88;;;21.90;99.90;;;;;;6235401;28;89032;-88
2023/08/09 10:11:05;;;;;;;4.20;3.80;;;21.90;99.90;;;;;;6229580;28;88089;-88
2023/08/09 10:14:11;;;;;;;4.93;4.00;;;21.90;99.90;;;;;;6228957;28;90143;-88
2023/08/09 10:17:14;;;;;;;4.22;3.72;;;21.90;99.90;;;;;;6228892;28;88806;-88
2023/08/09 10:20:19;;;;;;;4.10;3.70;;;21.90;99.90;;;;;;6228935;28;89002;-88
2023/08/09 10:23:26;;;;;;;5.20;4.57;;;21.90;99.90;;;;;;6229617;28;88050;-88
2023/08/09 10:26:30;;;;;;;4.10;3.70;;;21.90;99.90;;;;;;6228811;28;89517;-88
2023/08/09 10:32:52;;;;;;;4.65;4.10;;;21.80;99.90;;;;;;6238619;28;89557;-88
2023/08/09 10:35:55;;;;;;;4.40;4.00;;;21.80;99.90;;;;;;6238019;28;88355;-88
2023/08/09 10:38:59;;;;;;;4.97;3.90;;;21.90;99.90;;;;;;6237234;28;87900;-88
2023/08/09 10:42:06;;;;;;;4.25;3.85;;;21.90;99.90;;;;;;6236977;28;87928;-88
2023/08/09 10:45:09;;;;;;;4.35;3.95;;;21.90;99.90;;;;;;6226789;28;91685;-88
2023/08/09 10:48:20;;;;;;;4.40;4.00;;;21.90;99.90;;;;;;6222529;28;88360;-88
2023/08/09 10:51:24;;;;;;;4.40;4.00;;;21.80;99.90;;;;;;6228651;28;89043;-88
2023/08/09 10:54:30;;;;;;;4.43;4.03;;;21.80;99.90;;;;;;6228584;28;89019;-88
2023/08/09 10:57:42;;;;;;;4.05;3.65;;;21.80;99.90;;;;;;6232503;28;89043;-87
2023/08/09 11:00:44;;;;;;;4.00;3.60;;;21.90;99.90;;;;;;6229142;28;89071;-88
2023/08/09 11:03:48;;;;;;;4.10;3.70;;;21.90;99.90;;;;;;6230938;28;89075;-88
2023/08/09 11:06:52;;;;;;;4.15;3.65;;;21.80;99.90;;;;;;6236654;28;88380;-88
2023/08/09 11:10:25;;;;;;;4.30;3.90;;;21.90;99.90;;;;;;6231141;28;88977;-88
2023/08/09 11:13:34;;;;;;;4.28;3.80;;;21.90;99.90;;;;;;6232650;28;89091;-88
2023/08/09 11:16:37;;;;;;;4.10;3.70;;;21.80;99.90;;;;;;6228403;28;88459;-88
2023/08/09 11:19:40;;;;;;;4.25;3.85;;;21.80;99.90;;;;;;6235855;28;87866;-89
2023/08/09 11:22:46;;;;;;;4.10;3.70;;;21.90;99.90;;;;;;6232090;28;89360;-89
2023/08/09 11:25:48;;;;;;;4.18;3.78;;;21.80;99.90;;;;;;6235439;28;89116;-88
2023/08/09 11:29:09;;;;;;;3.90;3.50;;;21.90;99.90;;;;;;6230986;28;89180;-88
2023/08/09 11:32:11;;;;;;;4.07;3.67;;;21.90;99.90;;;;;;6229825;28;88819;-89
2023/08/09 11:35:13;;;;;;;3.85;3.55;;;21.80;99.90;;;;;;6236903;28;88618;-89
2023/08/09 11:38:17;;;;;;;3.90;3.50;;;21.80;99.90;;;;;;6231297;28;88281;-89
2023/08/09 11:41:21;;;;;;;3.97;3.58;;;21.80;99.90;;;;;;6227118;28;89021;-88
2023/08/09 11:44:33;;;;;;;3.58;3.28;;;21.80;99.90;;;;;;6228333;28;89162;-89
2023/08/09 11:47:37;;;;;;;3.88;3.47;;;21.80;99.90;;;;;;6232171;28;90101;-89
2023/08/09 11:50:40;;;;;;;3.75;3.40;;;21.80;99.90;;;;;;6230346;28;87952;-88
2023/08/09 11:53:44;;;;;;;4.13;3.72;;;21.80;99.90;;;;;;6230278;28;89148;-89
2023/08/09 11:56:46;;;;;;;4.40;3.70;;;21.90;99.90;;;;;;6228723;28;89087;-89
2023/08/09 11:59:51;;;;;;;4.00;3.60;;;21.80;99.90;;;;;;6229362;28;89119;-89
2023/08/09 12:02:59;;;;;;;3.72;3.30;;;21.80;99.90;;;;;;6226030;28;88840;-89
2023/08/09 12:09:32;;;;;;;4.07;3.67;;;21.80;99.90;;;;;;6228016;28;88780;-88
2023/08/09 12:12:38;;;;;;;3.88;3.38;;;21.80;99.90;;;;;;6227129;28;89256;-89
2023/08/09 12:15:42;;;;;;;4.05;3.40;;;21.80;99.90;;;;;;6227279;28;89037;-89
2023/08/09 12:18:45;;;;;;;4.13;3.47;;;21.80;99.90;;;;;;6225352;28;90061;-88
2023/08/09 12:21:47;;;;;;;3.58;3.28;;;21.80;99.90;;;;;;6231788;28;89133;-88
2023/08/09 12:24:50;;;;;;;3.50;3.20;;;21.80;99.90;;;;;;6226372;28;89552;-89
2023/08/09 12:27:53;;;;;;;3.60;3.30;;;21.80;99.90;;;;;;6235376;28;88188;-88
2023/08/09 12:30:56;;;;;;;3.22;2.92;;;21.80;99.90;;;;;;6236008;28;87913;-89
2023/08/09 12:33:58;;;;;;;3.65;3.35;;;21.80;99.90;;;;;;6238899;28;89175;-88
2023/08/09 12:37:02;;;;;;;3.63;3.15;;;21.80;99.90;;;;;;6238808;28;88953;-88
2023/08/09 12:40:07;;;;;;;3.90;3.42;;;21.80;99.90;;;;;;6234122;28;88372;-89
2023/08/09 12:43:09;;;;;;;3.67;3.30;;;21.80;99.90;;;;;;6235161;28;89570;-89
2023/08/09 12:46:16;;;;;;;3.40;3.10;;;21.80;99.90;;;;;;6230102;28;89374;-89
2023/08/09 12:49:18;;;;;;;4.03;3.47;;;21.80;99.90;;;;;;6236588;28;89968;-89
2023/08/09 12:52:22;;;;;;;3.60;3.10;;;21.80;99.90;;;;;;6234044;28;89650;-89
2023/08/09 12:55:25;;;;;;;3.58;3.28;;;21.80;99.90;;;;;;6228591;28;89113;-89
2023/08/09 12:58:27;;;;;;;3.40;3.10;;;21.90;99.90;;;;;;6229903;28;88487;-88
2023/08/09 13:01:35;;;;;;;3.92;3.53;;;21.80;99.90;;;;;;6227272;28;89368;-89
2023/08/09 13:04:37;;;;;;;3.35;3.00;;;21.80;99.90;;;;;;6231145;28;89067;-89
2023/08/09 13:07:40;;;;;;;3.50;3.20;;;21.80;99.90;;;;;;6240424;28;89037;-88
2023/08/09 13:10:42;;;;;;;3.33;3.03;;;21.80;99.90;;;;;;6241724;28;87172;-89
2023/08/09 13:13:44;;;;;;;3.35;3.05;;;21.80;99.90;;;;;;6235276;28;89045;-89
2023/08/09 13:16:50;;;;;;;3.47;3.17;;;21.80;99.90;;;;;;6234004;28;87930;-88
2023/08/09 13:19:53;;;;;;;3.53;3.10;;;21.80;99.90;;;;;;6234992;28;89385;-89
2023/08/09 13:22:59;;;;;;;3.13;2.83;;;21.80;99.90;;;;;;6236962;28;89403;-89
2023/08/09 13:26:01;;;;;;;3.38;3.08;;;21.80;99.90;;;;;;6231129;28;87019;-89
2023/08/09 13:29:04;;;;;;;3.13;2.83;;;21.80;99.90;;;;;;6233220;28;89534;-88
2023/08/09 13:32:10;;;;;;;3.00;2.70;;;21.80;99.90;;;;;;6230666;28;89311;-88
2023/08/09 13:35:12;;;;;;;2.80;2.60;;;21.80;99.90;;;;;;6229347;28;88989;-89
2023/08/09 13:38:27;;;;;;;3.47;3.13;;;21.80;99.90;;;;;;6230817;28;89128;-89
2023/08/09 13:41:30;;;;;;;2.97;2.67;;;21.80;99.90;;;;;;6236164;28;88335;-89
2023/08/09 13:44:32;;;;;;;3.20;2.90;;;21.80;99.90;;;;;;6231260;28;88360;-88
2023/08/09 13:50:53;;;;;;;2.72;2.53;;;21.80;99.90;;;;;;6233558;28;92502;-89
2023/08/09 13:53:57;;;;;;;3.72;3.20;;;21.80;99.90;;;;;;6234000;28;88939;-89
2023/08/09 13:57:01;;;;;;;3.00;2.70;;;21.80;99.90;;;;;;6235487;28;87901;-89
2023/08/09 14:00:07;;;;;;;3.08;2.78;;;21.80;99.90;;;;;;6230283;28;88960;-89
2023/08/09 14:03:12;;;;;;;3.20;2.90;;;21.80;99.90;;;;;;6230585;28;88977;-89
2023/08/09 14:06:14;;;;;;;3.45;2.85;;;21.80;99.90;;;;;;6230873;28;89534;-89
2023/08/09 14:09:24;;;;;;;3.38;3.08;;;21.80;99.90;;;;;;6224607;28;89122;-89
2023/08/09 14:12:31;;;;;;;3.05;2.78;;;21.80;99.90;;;;;;6242360;28;88271;-88
2023/08/09 14:15:33;;;;;;;3.00;2.67;;;21.80;99.90;;;;;;6237475;28;89415;-89
2023/08/09 14:18:41;;;;;;;3.60;2.85;;;21.80;99.90;;;;;;6238394;28;88234;-88
2023/08/09 14:21:49;;;;;;;3.38;2.60;;;21.80;99.90;;;;;;6226798;28;88920;-89
2023/08/09 14:24:55;;;;;;;2.80;2.50;;;21.80;99.90;;;;;;6230372;28;90559;-89
2023/08/09 14:27:59;;;;;;;2.90;2.70;;;21.80;99.90;;;;;;6230830;28;88372;-89
2023/08/09 14:31:03;;;;;;;2.72;2.53;;;21.80;99.90;;;;;;6229364;28;89278;-89
2023/08/09 14:34:16;;;;;;;3.08;2.78;;;21.80;99.90;;;;;;6229035;28;88001;-89
2023/08/09 14:37:20;;;;;;;2.90;2.70;;;21.80;99.90;;;;;;6228035;28;87949;-89
2023/08/09 14:43:42;;;;;;;2.90;2.70;;;21.80;99.90;;;;;;6233203;28;87147;-88
2023/08/09 14:46:53;;;;;;;2.97;2.67;;;21.80;99.90;;;;;;6233113;28;87985;-88
2023/08/09 14:50:27;;;;;;;2.83;2.63;;;21.80;99.90;;;;;;6232394;28;87803;-89
2023/08/09 14:53:41;;;;;;;2.70;2.40;;;21.80;99.90;;;;;;6237274;28;88926;-88
2023/08/09 15:00:09;;;;;;;2.70;2.50;;;21.80;99.90;;;;;;6229969;28;87942;-89
2023/08/09 15:06:45;;;;;;;2.70;2.50;;;21.80;99.90;;;;;;6263803;27;1917394;-66
2023/08/09 15:09:48;;;;;;;3.05;2.75;;;21.80;99.90;;;;;;6300998;27;81122;-66
2023/08/09 15:12:52;;;;;;;3.15;2.80;;;21.80;99.90;;;;;;6297694;27;80364;-66
2023/08/09 15:15:55;;;;;;;2.85;2.55;;;21.80;99.90;;;;;;6298370;27;81511;-66
2023/08/09 15:18:58;;;;;;;3.97;3.00;;;21.80;99.90;;;;;;6300706;27;81559;-66
2023/08/09 15:22:02;;;;;;;2.78;2.50;;;21.80;99.90;;;;;;6300252;27;81364;-66
2023/08/09 15:25:17;;;;;;;2.70;2.50;;;21.80;99.90;;;;;;6296398;27;82454;-66
2023/08/09 15:28:20;;;;;;;2.83;2.63;;;21.80;99.90;;;;;;6298584;27;81271;-66
2023/08/09 15:31:23;;;;;;;3.25;2.80;;;21.80;99.90;;;;;;6300021;27;81499;-66
2023/08/09 15:34:26;;;;;;;3.20;2.80;;;21.80;99.90;;;;;;6298802;27;81626;-66
2023/08/09 15:37:31;;;;;;;3.10;2.80;;;21.80;99.90;;;;;;6302652;27;82137;-66
2023/08/09 15:40:33;;;;;;;3.35;2.90;;;21.80;99.90;;;;;;6295439;27;81383;-66
2023/08/09 15:43:35;;;;;;;3.00;2.70;;;21.80;99.90;;;;;;6302048;27;82275;-66
2023/08/09 15:46:37;;;;;;;3.05;2.70;;;21.80;99.90;;;;;;6298139;27;81289;-66
2023/08/09 15:49:40;;;;;;;3.88;2.67;;;21.80;99.90;;;;;;6292524;27;82189;-66
2023/08/09 15:52:45;;;;;;;3.00;2.75;;;21.80;99.90;;;;;;6299278;27;82440;-66
2023/08/09 15:55:47;;;;;;;4.10;3.15;;;21.80;99.90;;;;;;6296711;27;82114;-65
2023/08/09 15:58:50;;;;;;;2.55;2.35;;;21.70;99.90;;;;;;6298851;27;84659;-66
2023/08/09 16:01:54;;;;;;;2.70;2.47;;;21.80;99.90;;;;;;6297804;27;82674;-66
2023/08/09 16:04:56;;;;;;;3.10;2.80;;;21.80;99.90;;;;;;6298852;27;83886;-66
2023/08/09 16:08:01;;;;;;;2.72;2.47;;;21.80;99.90;;;;;;6301324;27;82041;-66
2023/08/09 16:11:04;;;;;;;2.72;2.53;;;21.80;99.90;;;;;;6298499;27;81267;-66
2023/08/09 16:14:09;;;;;;;3.30;2.78;;;21.70;99.90;;;;;;6296859;27;81462;-66
2023/08/09 16:17:12;;;;;;;2.58;2.38;;;21.80;99.90;;;;;;6288033;27;81695;-65
2023/08/09 16:20:16;;;;;;;2.70;2.50;;;21.80;99.90;;;;;;6279080;27;81270;-66
2023/08/09 16:23:21;;;;;;;3.45;2.85;;;21.70;99.90;;;;;;6281277;27;81371;-66
2023/08/09 16:26:24;;;;;;;2.92;2.70;;;21.80;99.90;;;;;;6280815;27;80946;-65
2023/08/09 16:29:26;;;;;;;4.03;3.10;;;21.70;99.90;;;;;;6278858;27;82277;-66
2023/08/09 16:32:29;;;;;;;2.95;2.72;;;21.80;99.90;;;;;;6282043;27;82571;-65
2023/08/09 16:35:31;;;;;;;2.78;2.58;;;21.70;99.90;;;;;;6284530;27;81168;-65
2023/08/09 16:38:35;;;;;;;3.28;2.80;;;21.70;99.90;;;;;;6283460;27;82511;-65
2023/08/09 16:41:37;;;;;;;3.15;2.85;;;21.70;99.90;;;;;;6277562;27;82538;-65
2023/08/09 16:44:39;;;;;;;3.13;2.80;;;21.70;99.90;;;;;;6282218;27;82400;-66
2023/08/09 16:47:42;;;;;;;3.25;2.95;;;21.70;99.90;;;;;;6279980;27;83092;-66
2023/08/09 16:50:45;;;;;;;6.78;3.50;;;21.80;99.90;;;;;;6275521;27;81338;-66
2023/08/09 16:53:49;;;;;;;4.05;2.90;;;21.70;99.90;;;;;;6268428;27;82469;-66
2023/08/09 16:56:51;;;;;;;3.35;2.90;;;21.70;99.90;;;;;;6252797;27;82424;-65
2023/08/09 16:59:54;;;;;;;3.97;2.85;;;21.70;99.90;;;;;;6252501;27;82237;-65
2023/08/09 17:02:57;;;;;;;11.23;3.72;;;21.80;99.90;;;;;;6246518;27;81484;-65
2023/08/09 17:05:59;;;;;;;4.82;2.85;;;21.80;99.90;;;;;;6256132;28;80741;-66
2023/08/09 17:09:04;;;;;;;3.90;2.78;;;21.80;99.90;;;;;;6254553;27;81854;-66
2023/08/09 17:12:08;;;;;;;5.30;3.10;;;21.80;99.90;;;;;;6256053;27;81239;-66
2023/08/09 17:15:12;;;;;;;5.15;3.20;;;21.80;99.90;;;;;;6252229;27;81209;-66
2023/08/09 17:18:16;;;;;;;4.57;2.88;;;21.80;99.90;;;;;;6251359;27;81534;-66
2023/08/09 17:21:20;;;;;;;4.47;2.67;;;21.80;99.90;;;;;;6252272;27;81816;-66
2023/08/09 17:24:25;;;;;;;4.07;3.03;;;21.80;99.90;;;;;;6256267;27;80963;-65
2023/08/09 17:27:29;;;;;;;4.53;3.22;;;21.80;99.90;;;;;;6251599;27;81248;-66
2023/08/09 17:30:33;;;;;;;3.97;2.80;;;21.80;99.90;;;;;;6256053;27;80323;-66
2023/08/09 17:33:36;;;;;;;4.85;2.97;;;21.80;99.90;;;;;;6255097;27;81212;-67
2023/08/09 17:36:40;;;;;;;4.38;3.20;;;21.80;99.90;;;;;;6253599;27;80954;-66
2023/08/09 17:39:46;;;;;;;3.85;3.08;;;21.80;99.90;;;;;;6255064;27;81728;-67
2023/08/09 17:42:49;;;;;;;4.60;3.17;;;21.80;99.90;;;;;;6255128;27;81332;-66
2023/08/09 17:45:53;;;;;;;6.00;3.25;;;21.80;99.90;;;;;;6251024;27;81340;-66
2023/08/09 17:48:57;;;;;;;5.20;3.17;;;21.80;99.90;;;;;;6234149;27;81449;-66
2023/08/09 17:52:01;;;;;;;4.38;3.00;;;21.80;99.90;;;;;;6242143;27;82718;-66
2023/08/09 17:55:07;;;;;;;5.40;3.00;;;21.80;99.90;;;;;;6255248;27;80544;-66
2023/08/09 17:58:10;;;;;;;4.00;3.25;;;21.80;99.90;;;;;;6255689;27;81888;-66
2023/08/09 18:01:14;;;;;;;3.83;3.35;;;21.80;99.90;;;;;;6253472;27;81004;-66
2023/08/09 18:04:18;;;;;;;3.53;3.10;;;21.80;99.90;;;;;;6256269;27;81321;-66
2023/08/09 18:07:22;;;;;;;5.28;3.58;;;21.80;99.90;;;;;;6249933;27;82907;-66
2023/08/09 18:10:28;;;;;;;5.07;3.67;;;21.80;99.90;;;;;;6252049;27;80731;-67
2023/08/09 18:13:32;;;;;;;3.38;3.08;;;21.80;99.90;;;;;;6246300;27;81693;-66
2023/08/09 18:16:36;;;;;;;3.40;3.10;;;21.80;99.90;;;;;;6254621;27;82347;-66
2023/08/09 18:19:39;;;;;;;3.88;3.40;;;21.80;99.90;;;;;;6246859;27;81255;-67
2023/08/09 18:22:47;;;;;;;5.10;3.47;;;21.80;99.90;;;;;;6251044;27;81580;-67
2023/08/09 18:25:52;;;;;;;3.90;3.50;;;21.90;99.90;;;;;;6254014;27;80356;-66
2023/08/09 18:28:56;;;;;;;3.75;3.35;;;21.80;99.90;;;;;;6250635;27;83596;-67
2023/08/09 18:32:00;;;;;;;4.07;3.60;;;21.80;99.90;;;;;;6253830;27;81319;-66
2023/08/09 18:35:04;;;;;;;3.75;3.28;;;21.80;99.90;;;;;;6251176;27;81446;-67
2023/08/09 18:38:08;;;;;;;4.10;3.10;;;21.80;99.90;;;;;;6251465;27;81159;-66
2023/08/09 18:41:16;;;;;;;4.22;3.47;;;21.90;99.90;;;;;;6252478;27;82560;-66
2023/08/09 18:44:20;;;;;;;3.53;3.22;;;21.80;99.90;;;;;;6255183;27;81251;-67
2023/08/09 18:47:23;;;;;;;4.60;3.30;;;21.90;99.90;;;;;;6253184;27;80885;-67
2023/08/09 18:50:27;;;;;;;3.65;3.20;;;21.90;99.90;;;;;;6252202;27;81319;-66
2023/08/09 18:53:31;;;;;;;3.90;3.13;;;21.80;99.90;;;;;;6255333;27;81290;-66
2023/08/09 18:56:38;;;;;;;3.20;2.90;;;21.90;99.90;;;;;;6252865;27;80353;-67
2023/08/09 18:59:42;;;;;;;4.35;3.50;;;21.90;99.90;;;;;;6251926;27;81711;-67
2023/08/09 19:02:47;;;;;;;3.70;3.10;;;21.90;99.90;;;;;;6252972;27;81578;-67
2023/08/09 19:05:52;;;;;;;4.03;3.33;;;21.80;99.90;;;;;;6248451;27;81201;-67
2023/08/09 19:08:57;;;;;;;5.85;3.70;;;21.80;99.90;;;;;;6249396;27;80422;-67
2023/08/09 19:12:02;;;;;;;6.07;3.55;;;21.80;99.90;;;;;;6252212;27;80991;-67
2023/08/09 19:15:07;;;;;;;4.20;3.30;;;21.80;99.90;;;;;;6254586;27;81279;-66
2023/08/09 19:18:11;;;;;;;5.93;3.70;;;21.90;99.90;;;;;;6245461;27;81678;-67
2023/08/09 19:21:17;;;;;;;6.35;3.60;;;21.90;99.90;;;;;;6250958;27;81103;-68
2023/08/09 19:24:23;;;;;;;5.93;3.97;;;21.90;99.90;;;;;;6250217;27;81213;-66
2023/08/09 19:27:28;;;;;;;7.65;3.85;;;21.90;99.90;;;;;;6251925;27;82812;-67
2023/08/09 19:30:33;;;;;;;7.22;4.15;;;21.90;99.90;;;;;;6249904;27;81280;-67
2023/08/09 19:33:37;;;;;;;7.57;3.55;;;21.90;99.90;;;;;;6250354;27;80930;-67
2023/08/09 19:36:41;;;;;;;6.70;3.58;;;21.90;99.90;;;;;;6254633;27;81653;-67
2023/08/09 19:39:45;;;;;;;5.28;3.30;;;21.90;99.90;;;;;;6254345;27;81500;-67
2023/08/09 19:42:50;;;;;;;7.03;4.22;;;21.90;99.90;;;;;;6251959;27;81254;-67
2023/08/09 19:45:54;;;;;;;5.00;3.38;;;21.90;99.90;;;;;;6251807;27;81207;-67
2023/08/09 19:48:59;;;;;;;4.80;3.80;;;21.90;99.90;;;;;;6249866;27;81434;-67
2023/08/09 19:52:03;;;;;;;5.63;3.58;;;21.90;99.90;;;;;;6253660;27;81198;-67
2023/08/09 19:55:08;;;;;;;7.18;3.70;;;21.90;99.90;;;;;;6257884;27;81883;-67
2023/08/09 19:58:14;;;;;;;4.90;3.78;;;21.90;99.90;;;;;;6258571;27;81310;-67
2023/08/09 20:01:19;;;;;;;5.93;3.67;;;21.90;99.90;;;;;;6256763;27;81286;-67
2023/08/09 20:04:23;;;;;;;5.82;3.60;;;21.90;99.90;;;;;;6254753;27;81307;-68
2023/08/09 20:07:30;;;;;;;7.28;3.95;;;21.90;99.90;;;;;;6255472;27;81941;-67
2023/08/09 20:10:35;;;;;;;6.07;3.95;;;21.90;99.90;;;;;;6249526;27;80411;-67
2023/08/09 20:13:41;;;;;;;5.25;3.30;;;21.90;99.90;;;;;;6263976;27;82709;-67
2023/08/09 20:16:45;;;;;;;4.88;3.30;;;21.90;99.90;;;;;;6261674;27;82222;-67
2023/08/09 20:19:49;;;;;;;5.70;3.55;;;21.90;99.90;;;;;;6264791;27;81992;-67
2023/08/09 20:22:53;;;;;;;6.10;3.63;;;21.90;99.90;;;;;;6245936;27;82969;-68
2023/08/09 20:25:58;;;;;;;6.20;3.85;;;21.90;99.90;;;;;;6248789;27;84272;-67
2023/08/09 20:29:03;;;;;;;3.83;3.25;;;21.90;99.90;;;;;;6253689;27;83165;-67
2023/08/09 20:32:08;;;;;;;5.55;3.50;;;21.90;99.90;;;;;;6246437;27;83337;-67
2023/08/09 20:35:12;;;;;;;4.78;4.00;;;21.90;99.90;;;;;;6259931;27;83330;-67
2023/08/09 20:38:16;;;;;;;6.05;3.60;;;21.90;99.90;;;;;;6259624;27;83923;-67
2023/08/09 20:41:19;;;;;;;5.75;4.03;;;21.90;99.90;;;;;;6258934;27;83980;-67
2023/08/09 20:44:25;;;;;;;6.45;3.95;;;21.90;99.90;;;;;;6254167;27;82960;-67
2023/08/09 20:47:28;;;;;;;4.90;3.78;;;21.80;99.90;;;;;;6255112;27;82200;-67
2023/08/09 20:50:32;;;;;;;5.63;3.97;;;21.80;99.90;;;;;;6257659;27;82724;-67
2023/08/09 20:53:35;;;;;;;5.03;4.20;;;21.90;99.90;;;;;;6245250;27;85843;-67
2023/08/09 20:56:39;;;;;;;5.13;4.00;;;21.80;99.90;;;;;;6253608;27;83497;-67
2023/08/09 20:59:44;;;;;;;5.88;4.10;;;21.80;99.90;;;;;;6247023;27;82970;-67
2023/08/09 21:02:46;;;;;;;6.50;4.20;;;21.80;99.90;;;;;;6240664;27;83046;-67
2023/08/09 21:05:54;;;;;;;7.13;4.28;;;21.80;99.90;;;;;;6249293;27;84285;-67
2023/08/09 21:08:57;;;;;;;5.70;4.18;;;21.80;99.90;;;;;;6239152;27;82884;-67
2023/08/09 21:11:59;;;;;;;4.90;3.70;;;21.90;99.90;;;;;;6280005;27;83091;-67
2023/08/09 21:15:02;;;;;;;5.47;4.20;;;21.80;99.90;;;;;;6269339;27;84052;-67
2023/08/09 21:18:05;;;;;;;4.40;4.00;;;21.80;99.90;;;;;;6251537;27;82136;-67
2023/08/09 21:21:08;;;;;;;4.82;3.97;;;21.80;99.90;;;;;;6251905;27;84341;-68
2023/08/09 21:24:10;;;;;;;5.07;4.10;;;21.80;99.90;;;;;;6263585;27;83684;-67
2023/08/09 21:27:12;;;;;;;5.70;4.30;;;21.80;99.90;;;;;;6263621;27;84849;-68
2023/08/09 21:30:15;;;;;;;4.50;3.80;;;21.80;99.90;;;;;;6263338;27;84404;-67
2023/08/09 21:33:17;;;;;;;4.82;4.20;;;21.80;99.90;;;;;;6250910;27;84794;-68
2023/08/09 21:36:19;;;;;;;5.05;4.10;;;21.80;99.90;;;;;;6255312;27;83960;-67
2023/08/09 21:39:21;;;;;;;4.40;4.00;;;21.80;99.90;;;;;;6257306;27;82972;-67
2023/08/09 21:42:23;;;;;;;5.68;4.00;;;21.80;99.90;;;;;;6252182;27;82927;-67
2023/08/09 21:45:27;;;;;;;5.07;4.00;;;21.80;99.90;;;;;;6244409;27;83973;-67
2023/08/09 21:48:29;;;;;;;4.18;3.78;;;21.80;99.90;;;;;;6245919;27;83276;-67
2023/08/09 21:51:31;;;;;;;4.65;4.00;;;21.80;99.90;;;;;;6255852;27;83949;-67
2023/08/09 21:54:33;;;;;;;5.32;4.10;;;21.80;99.90;;;;;;6244189;27;83998;-67
2023/08/09 21:57:34;;;;;;;4.13;3.65;;;21.80;99.90;;;;;;6248589;27;84176;-67
2023/08/09 22:00:38;;;;;;;3.97;3.60;;;21.80;99.90;;;;;;6270333;27;84016;-67
2023/08/09 22:03:40;;;;;;;5.50;3.95;;;21.80;99.90;;;;;;6259116;27;84219;-67
2023/08/09 22:06:42;;;;;;;4.38;3.97;;;21.80;99.90;;;;;;6253735;27;84004;-67
2023/08/09 22:09:44;;;;;;;6.07;4.35;;;21.80;99.90;;;;;;6257099;27;82044;-68
2023/08/09 22:12:46;;;;;;;4.55;4.07;;;21.80;99.90;;;;;;6245167;27;83087;-68
2023/08/09 22:15:51;;;;;;;4.25;3.38;;;21.80;99.90;;;;;;6251182;27;83977;-67
2023/08/09 22:18:53;;;;;;;4.28;3.78;;;21.70;99.90;;;;;;6249756;27;83514;-68
2023/08/09 22:21:55;;;;;;;4.35;3.65;;;21.80;99.90;;;;;;6248249;27;84362;-68
2023/08/09 22:25:23;;;;;;;4.72;3.50;;;21.70;99.90;;;;;;6260501;27;84046;-67
2023/08/09 22:28:25;;;;;;;4.00;3.60;;;21.80;99.90;;;;;;6234627;27;84993;-68
2023/08/09 22:31:29;;;;;;;5.53;3.65;;;21.80;99.90;;;;;;6251694;27;84057;-67
2023/08/09 22:34:31;;;;;;;5.57;3.80;;;21.70;99.90;;;;;;6245184;27;82918;-68
2023/08/09 22:37:33;;;;;;;5.07;3.97;;;21.80;99.90;;;;;;6245899;27;84640;-67
2023/08/09 22:40:35;;;;;;;4.75;4.00;;;21.70;99.90;;;;;;6244094;27;82905;-67
2023/08/09 22:43:37;;;;;;;4.40;3.90;;;21.70;99.90;;;;;;6268469;27;84110;-67
2023/08/09 22:46:41;;;;;;;5.32;3.88;;;21.70;99.90;;;;;;6277894;27;82881;-66
2023/08/09 22:49:43;;;;;;;5.47;4.05;;;21.70;99.90;;;;;;6257656;27;82299;-65
2023/08/09 22:52:45;;;;;;;6.03;3.90;;;21.80;99.90;;;;;;6263505;27;84125;-67